sensor_id;sensor_type;location;lat;lon;timestamp;pressure;altitude;pressure_sealevel;temperature;humidity
73918;BME280;63639;52.280;5.162;2022-12-18T00:01:21;102941.49;;;2.47;60.92
73918;BME280;63639;52.280;5.162;2022-12-18T00:03:49;102935.33;;;2.47;60.27
73918;BME280;63639;52.280;5.162;2022-12-18T00:06:16;102937.81;;;2.42;60.61
73918;BME280;63639;52.280;5.162;2022-12-18T00:08:44;102941.87;;;2.51;60.49
73918;BME280;63639;52.280;5.162;2022-12-18T00:11:13;102938.32;;;2.52;60.12
73918;BME280;63639;52.280;5.162;2022-12-18T00:13:40;102927.85;;;2.56;60.11
73918;BME280;63639;52.280;5.162;2022-12-18T00:16:10;102930.82;;;2.41;60.11
73918;BME280;63639;52.280;5.162;2022-12-18T00:18:37;102925.07;;;2.29;60.30
73918;BME280;63639;52.280;5.162;2022-12-18T00:21:06;102923.45;;;2.35;60.45
73918;BME280;63639;52.280;5.162;2022-12-18T00:23:34;102927.46;;;2.44;60.12
73918;BME280;63639;52.280;5.162;2022-12-18T00:26:06;102931.72;;;2.13;60.54
73918;BME280;63639;52.280;5.162;2022-12-18T00:28:33;102938.39;;;2.16;60.82
73918;BME280;63639;52.280;5.162;2022-12-18T00:31:01;102929.43;;;2.28;60.93
73918;BME280;63639;52.280;5.162;2022-12-18T00:33:28;102926.97;;;2.38;60.62
73918;BME280;63639;52.280;5.162;2022-12-18T00:35:55;102924.36;;;2.48;60.06
73918;BME280;63639;52.280;5.162;2022-12-18T00:38:26;102930.64;;;2.56;60.26
73918;BME280;63639;52.280;5.162;2022-12-18T00:40:53;102930.24;;;2.54;60.07
73918;BME280;63639;52.280;5.162;2022-12-18T00:43:20;102931.14;;;2.58;60.00
73918;BME280;63639;52.280;5.162;2022-12-18T00:45:46;102929.54;;;2.30;60.47
73918;BME280;63639;52.280;5.162;2022-12-18T00:48:13;102934.46;;;2.22;60.84
73918;BME280;63639;52.280;5.162;2022-12-18T00:50:40;102928.79;;;2.25;60.37
73918;BME280;63639;52.280;5.162;2022-12-18T00:53:07;102932.73;;;2.28;59.90
73918;BME280;63639;52.280;5.162;2022-12-18T00:55:34;102929.66;;;2.31;59.57
73918;BME280;63639;52.280;5.162;2022-12-18T00:58:01;102921.66;;;2.29;60.10
73918;BME280;63639;52.280;5.162;2022-12-18T01:00:28;102920.91;;;2.31;59.61
73918;BME280;63639;52.280;5.162;2022-12-18T01:02:54;102925.69;;;2.30;59.36
73918;BME280;63639;52.280;5.162;2022-12-18T01:05:21;102923.76;;;2.37;59.72
73918;BME280;63639;52.280;5.162;2022-12-18T01:07:48;102917.37;;;2.31;59.56
73918;BME280;63639;52.280;5.162;2022-12-18T01:10:15;102918.67;;;2.29;59.19
73918;BME280;63639;52.280;5.162;2022-12-18T01:12:41;102919.26;;;2.21;59.44
73918;BME280;63639;52.280;5.162;2022-12-18T01:15:10;102921.71;;;2.15;59.87
73918;BME280;63639;52.280;5.162;2022-12-18T01:17:37;102918.76;;;2.13;59.53
73918;BME280;63639;52.280;5.162;2022-12-18T01:20:05;102916.59;;;2.17;59.84
73918;BME280;63639;52.280;5.162;2022-12-18T01:22:33;102923.05;;;2.23;59.76
73918;BME280;63639;52.280;5.162;2022-12-18T01:25:00;102924.56;;;2.18;59.30
73918;BME280;63639;52.280;5.162;2022-12-18T01:27:26;102921.08;;;2.25;59.20
73918;BME280;63639;52.280;5.162;2022-12-18T01:29:54;102920.01;;;2.26;58.36
73918;BME280;63639;52.280;5.162;2022-12-18T01:32:21;102918.19;;;2.19;58.70
73918;BME280;63639;52.280;5.162;2022-12-18T01:34:48;102925.44;;;2.17;59.08
73918;BME280;63639;52.280;5.162;2022-12-18T01:37:15;102934.78;;;2.11;58.76
73918;BME280;63639;52.280;5.162;2022-12-18T01:39:41;102936.27;;;2.09;58.64
73918;BME280;63639;52.280;5.162;2022-12-18T01:42:11;102935.20;;;2.10;58.75
73918;BME280;63639;52.280;5.162;2022-12-18T01:45:43;102936.53;;;2.09;58.65
73918;BME280;63639;52.280;5.162;2022-12-18T01:48:09;102938.28;;;2.10;59.03
73918;BME280;63639;52.280;5.162;2022-12-18T01:50:38;102937.61;;;2.20;58.51
73918;BME280;63639;52.280;5.162;2022-12-18T01:53:10;102941.60;;;2.26;58.10
73918;BME280;63639;52.280;5.162;2022-12-18T01:55:43;102953.85;;;2.23;57.57
73918;BME280;63639;52.280;5.162;2022-12-18T01:58:11;102967.21;;;2.18;58.12
73918;BME280;63639;52.280;5.162;2022-12-18T02:01:52;102968.44;;;2.20;58.01
73918;BME280;63639;52.280;5.162;2022-12-18T02:04:20;102970.63;;;2.21;58.52
73918;BME280;63639;52.280;5.162;2022-12-18T02:06:51;102969.83;;;2.25;58.38
73918;BME280;63639;52.280;5.162;2022-12-18T02:09:28;102970.88;;;2.18;57.86
73918;BME280;63639;52.280;5.162;2022-12-18T02:12:02;102983.76;;;2.19;58.10
73918;BME280;63639;52.280;5.162;2022-12-18T02:14:36;102995.83;;;2.22;58.37
73918;BME280;63639;52.280;5.162;2022-12-18T02:17:07;102995.51;;;2.28;58.20
73918;BME280;63639;52.280;5.162;2022-12-18T02:19:51;102997.66;;;2.29;58.05
73918;BME280;63639;52.280;5.162;2022-12-18T02:22:27;103002.51;;;2.31;57.50
73918;BME280;63639;52.280;5.162;2022-12-18T02:25:05;103006.27;;;2.38;57.86
73918;BME280;63639;52.280;5.162;2022-12-18T02:27:41;103001.73;;;2.35;57.10
73918;BME280;63639;52.280;5.162;2022-12-18T02:30:11;102996.32;;;2.25;57.33
73918;BME280;63639;52.280;5.162;2022-12-18T02:32:42;102979.41;;;2.19;57.26
73918;BME280;63639;52.280;5.162;2022-12-18T02:35:12;102974.38;;;2.25;57.19
73918;BME280;63639;52.280;5.162;2022-12-18T02:37:42;102970.98;;;2.22;57.70
73918;BME280;63639;52.280;5.162;2022-12-18T02:40:11;102962.29;;;2.24;57.90
73918;BME280;63639;52.280;5.162;2022-12-18T02:42:38;102953.85;;;2.26;57.63
73918;BME280;63639;52.280;5.162;2022-12-18T02:45:06;102945.63;;;2.16;57.49
73918;BME280;63639;52.280;5.162;2022-12-18T02:47:36;102947.14;;;2.13;57.38
73918;BME280;63639;52.280;5.162;2022-12-18T02:50:10;102946.16;;;1.98;58.09
73918;BME280;63639;52.280;5.162;2022-12-18T02:52:47;102943.17;;;1.99;58.38
73918;BME280;63639;52.280;5.162;2022-12-18T02:55:28;102938.02;;;1.87;57.80
73918;BME280;63639;52.280;5.162;2022-12-18T02:58:03;102934.54;;;1.76;58.18
73918;BME280;63639;52.280;5.162;2022-12-18T03:00:37;102930.49;;;1.62;58.58
73918;BME280;63639;52.280;5.162;2022-12-18T03:03:08;102929.14;;;1.63;58.89
73918;BME280;63639;52.280;5.162;2022-12-18T03:05:41;102929.24;;;1.67;58.90
73918;BME280;63639;52.280;5.162;2022-12-18T03:08:13;102927.57;;;1.62;58.29
73918;BME280;63639;52.280;5.162;2022-12-18T03:10:45;102928.90;;;1.61;58.79
73918;BME280;63639;52.280;5.162;2022-12-18T03:13:22;102925.53;;;1.72;58.41
73918;BME280;63639;52.280;5.162;2022-12-18T03:15:52;102920.09;;;1.71;58.03
73918;BME280;63639;52.280;5.162;2022-12-18T03:18:23;102920.50;;;1.67;58.80
73918;BME280;63639;52.280;5.162;2022-12-18T03:20:53;102914.25;;;1.66;57.78
73918;BME280;63639;52.280;5.162;2022-12-18T03:23:25;102909.96;;;1.65;58.55
73918;BME280;63639;52.280;5.162;2022-12-18T03:25:57;102910.85;;;1.61;57.62
73918;BME280;63639;52.280;5.162;2022-12-18T03:28:30;102913.56;;;1.56;58.41
73918;BME280;63639;52.280;5.162;2022-12-18T03:31:00;102911.11;;;1.59;58.10
73918;BME280;63639;52.280;5.162;2022-12-18T03:33:32;102905.88;;;1.66;58.41
73918;BME280;63639;52.280;5.162;2022-12-18T03:36:01;102900.45;;;1.62;57.71
73918;BME280;63639;52.280;5.162;2022-12-18T03:38:28;102896.21;;;1.60;57.82
73918;BME280;63639;52.280;5.162;2022-12-18T03:41:00;102891.31;;;1.58;57.85
73918;BME280;63639;52.280;5.162;2022-12-18T03:43:36;102890.72;;;1.63;57.74
73918;BME280;63639;52.280;5.162;2022-12-18T03:46:09;102892.36;;;1.71;56.90
73918;BME280;63639;52.280;5.162;2022-12-18T03:48:42;102890.49;;;1.71;56.85
73918;BME280;63639;52.280;5.162;2022-12-18T03:51:13;102887.61;;;1.70;56.77
73918;BME280;63639;52.280;5.162;2022-12-18T03:53:48;102881.23;;;1.64;56.27
73918;BME280;63639;52.280;5.162;2022-12-18T03:56:18;102883.96;;;1.58;56.54
73918;BME280;63639;52.280;5.162;2022-12-18T03:58:48;102883.98;;;1.49;56.56
73918;BME280;63639;52.280;5.162;2022-12-18T04:01:17;102876.87;;;1.47;56.98
73918;BME280;63639;52.280;5.162;2022-12-18T04:03:46;102874.99;;;1.51;56.74
73918;BME280;63639;52.280;5.162;2022-12-18T04:06:15;102874.90;;;1.50;56.59
73918;BME280;63639;52.280;5.162;2022-12-18T04:08:43;102873.31;;;1.48;56.58
73918;BME280;63639;52.280;5.162;2022-12-18T04:11:10;102864.93;;;1.38;56.88
73918;BME280;63639;52.280;5.162;2022-12-18T04:13:38;102853.02;;;1.23;57.22
73918;BME280;63639;52.280;5.162;2022-12-18T04:16:05;102854.16;;;1.23;57.45
73918;BME280;63639;52.280;5.162;2022-12-18T04:18:33;102854.32;;;1.36;57.24
73918;BME280;63639;52.280;5.162;2022-12-18T04:20:59;102853.87;;;1.48;56.90
73918;BME280;63639;52.280;5.162;2022-12-18T04:23:26;102851.54;;;1.50;56.60
73918;BME280;63639;52.280;5.162;2022-12-18T04:25:52;102852.01;;;1.50;56.07
73918;BME280;63639;52.280;5.162;2022-12-18T04:28:20;102849.96;;;1.49;56.06
73918;BME280;63639;52.280;5.162;2022-12-18T04:30:47;102855.51;;;1.35;56.07
73918;BME280;63639;52.280;5.162;2022-12-18T04:33:14;102859.23;;;1.34;55.61
73918;BME280;63639;52.280;5.162;2022-12-18T04:35:42;102862.33;;;1.32;55.91
73918;BME280;63639;52.280;5.162;2022-12-18T04:38:09;102863.21;;;1.35;56.26
73918;BME280;63639;52.280;5.162;2022-12-18T04:40:36;102868.61;;;1.39;55.94
73918;BME280;63639;52.280;5.162;2022-12-18T04:43:03;102871.94;;;1.37;55.96
73918;BME280;63639;52.280;5.162;2022-12-18T04:45:30;102876.41;;;1.44;55.86
73918;BME280;63639;52.280;5.162;2022-12-18T04:47:57;102885.58;;;1.43;55.45
73918;BME280;63639;52.280;5.162;2022-12-18T04:50:24;102890.22;;;1.42;55.60
73918;BME280;63639;52.280;5.162;2022-12-18T04:52:51;102893.93;;;1.43;55.94
73918;BME280;63639;52.280;5.162;2022-12-18T04:55:18;102897.03;;;1.48;55.81
73918;BME280;63639;52.280;5.162;2022-12-18T04:57:45;102902.41;;;1.49;55.66
73918;BME280;63639;52.280;5.162;2022-12-18T05:00:13;102902.95;;;1.51;55.33
73918;BME280;63639;52.280;5.162;2022-12-18T05:02:40;102908.25;;;1.55;54.96
73918;BME280;63639;52.280;5.162;2022-12-18T05:05:07;102909.51;;;1.54;55.08
73918;BME280;63639;52.280;5.162;2022-12-18T05:07:34;102912.79;;;1.53;54.95
73918;BME280;63639;52.280;5.162;2022-12-18T05:10:01;102916.62;;;1.54;54.24
73918;BME280;63639;52.280;5.162;2022-12-18T05:12:28;102926.35;;;1.49;54.85
73918;BME280;63639;52.280;5.162;2022-12-18T05:14:55;102927.75;;;1.45;55.14
73918;BME280;63639;52.280;5.162;2022-12-18T05:17:22;102928.32;;;1.41;55.63
73918;BME280;63639;52.280;5.162;2022-12-18T05:19:49;102922.34;;;1.41;55.12
73918;BME280;63639;52.280;5.162;2022-12-18T05:22:15;102924.77;;;1.31;55.29
73918;BME280;63639;52.280;5.162;2022-12-18T05:24:42;102933.20;;;1.33;55.29
73918;BME280;63639;52.280;5.162;2022-12-18T05:27:09;102939.86;;;1.41;54.90
73918;BME280;63639;52.280;5.162;2022-12-18T05:29:36;102945.37;;;1.45;55.16
73918;BME280;63639;52.280;5.162;2022-12-18T05:32:03;102945.31;;;1.46;55.14
73918;BME280;63639;52.280;5.162;2022-12-18T05:34:30;102939.83;;;1.51;54.75
73918;BME280;63639;52.280;5.162;2022-12-18T05:36:56;102928.74;;;1.51;54.75
73918;BME280;63639;52.280;5.162;2022-12-18T05:39:24;102919.18;;;1.52;54.55
73918;BME280;63639;52.280;5.162;2022-12-18T05:41:51;102915.26;;;1.50;53.70
73918;BME280;63639;52.280;5.162;2022-12-18T05:44:17;102915.11;;;1.39;54.34
73918;BME280;63639;52.280;5.162;2022-12-18T05:46:44;102909.58;;;1.26;54.95
73918;BME280;63639;52.280;5.162;2022-12-18T05:49:11;102908.72;;;1.21;54.68
73918;BME280;63639;52.280;5.162;2022-12-18T05:51:37;102902.99;;;1.15;54.62
73918;BME280;63639;52.280;5.162;2022-12-18T05:54:05;102898.77;;;1.13;54.78
73918;BME280;63639;52.280;5.162;2022-12-18T05:56:31;102889.82;;;1.18;54.98
73918;BME280;63639;52.280;5.162;2022-12-18T05:58:58;102888.70;;;1.15;54.59
73918;BME280;63639;52.280;5.162;2022-12-18T06:01:26;102893.91;;;1.01;55.32
73918;BME280;63639;52.280;5.162;2022-12-18T06:03:53;102896.45;;;0.83;55.14
73918;BME280;63639;52.280;5.162;2022-12-18T06:06:22;102896.80;;;0.82;55.25
73918;BME280;63639;52.280;5.162;2022-12-18T06:08:49;102888.66;;;0.75;55.50
73918;BME280;63639;52.280;5.162;2022-12-18T06:11:18;102882.34;;;0.60;56.01
73918;BME280;63639;52.280;5.162;2022-12-18T06:13:45;102884.70;;;0.52;55.90
73918;BME280;63639;52.280;5.162;2022-12-18T06:16:13;102881.92;;;0.50;55.80
73918;BME280;63639;52.280;5.162;2022-12-18T06:18:39;102885.22;;;0.55;55.79
73918;BME280;63639;52.280;5.162;2022-12-18T06:21:07;102886.40;;;0.52;56.44
73918;BME280;63639;52.280;5.162;2022-12-18T06:23:34;102884.44;;;0.50;56.04
73918;BME280;63639;52.280;5.162;2022-12-18T06:26:04;102879.52;;;0.58;56.03
73918;BME280;63639;52.280;5.162;2022-12-18T06:28:31;102876.57;;;0.53;56.17
73918;BME280;63639;52.280;5.162;2022-12-18T06:30:58;102873.02;;;0.41;56.67
73918;BME280;63639;52.280;5.162;2022-12-18T06:33:26;102869.02;;;0.39;57.30
73918;BME280;63639;52.280;5.162;2022-12-18T06:35:53;102863.59;;;0.38;56.69
73918;BME280;63639;52.280;5.162;2022-12-18T06:38:20;102857.03;;;0.37;56.77
73918;BME280;63639;52.280;5.162;2022-12-18T06:40:46;102848.95;;;0.39;56.72
73918;BME280;63639;52.280;5.162;2022-12-18T06:43:13;102843.64;;;0.38;57.02
73918;BME280;63639;52.280;5.162;2022-12-18T06:45:40;102840.83;;;0.42;56.61
73918;BME280;63639;52.280;5.162;2022-12-18T06:48:07;102837.11;;;0.41;56.63
73918;BME280;63639;52.280;5.162;2022-12-18T06:50:34;102837.87;;;0.36;56.99
73918;BME280;63639;52.280;5.162;2022-12-18T06:53:01;102835.65;;;0.38;57.08
73918;BME280;63639;52.280;5.162;2022-12-18T06:55:28;102834.13;;;0.47;56.61
73918;BME280;63639;52.280;5.162;2022-12-18T06:57:54;102828.83;;;0.57;56.41
73918;BME280;63639;52.280;5.162;2022-12-18T07:00:21;102825.75;;;0.59;56.09
73918;BME280;63639;52.280;5.162;2022-12-18T07:02:48;102819.82;;;0.56;55.77
73918;BME280;63639;52.280;5.162;2022-12-18T07:05:15;102816.59;;;0.57;56.37
73918;BME280;63639;52.280;5.162;2022-12-18T07:07:42;102815.47;;;0.67;55.76
73918;BME280;63639;52.280;5.162;2022-12-18T07:10:09;102812.07;;;0.65;55.17
73918;BME280;63639;52.280;5.162;2022-12-18T07:12:36;102814.82;;;0.59;55.51
73918;BME280;63639;52.280;5.162;2022-12-18T07:15:03;102816.96;;;0.55;55.85
73918;BME280;63639;52.280;5.162;2022-12-18T07:17:31;102819.27;;;0.58;55.80
73918;BME280;63639;52.280;5.162;2022-12-18T07:19:57;102817.64;;;0.50;55.96
73918;BME280;63639;52.280;5.162;2022-12-18T07:22:24;102810.55;;;0.54;55.79
73918;BME280;63639;52.280;5.162;2022-12-18T07:24:51;102808.08;;;0.59;56.11
73918;BME280;63639;52.280;5.162;2022-12-18T07:27:18;102805.32;;;0.60;55.86
73918;BME280;63639;52.280;5.162;2022-12-18T07:29:45;102806.12;;;0.60;56.08
73918;BME280;63639;52.280;5.162;2022-12-18T07:32:13;102804.81;;;0.60;55.82
73918;BME280;63639;52.280;5.162;2022-12-18T07:34:40;102806.33;;;0.53;55.72
73918;BME280;63639;52.280;5.162;2022-12-18T07:37:07;102802.50;;;0.53;55.83
73918;BME280;63639;52.280;5.162;2022-12-18T07:39:34;102793.14;;;0.59;55.86
73918;BME280;63639;52.280;5.162;2022-12-18T07:42:01;102788.41;;;0.47;56.17
73918;BME280;63639;52.280;5.162;2022-12-18T07:44:28;102777.94;;;0.43;56.23
73918;BME280;63639;52.280;5.162;2022-12-18T07:46:55;102766.82;;;0.43;56.27
73918;BME280;63639;52.280;5.162;2022-12-18T07:49:22;102762.58;;;0.38;56.37
73918;BME280;63639;52.280;5.162;2022-12-18T07:51:49;102756.55;;;0.37;56.34
73918;BME280;63639;52.280;5.162;2022-12-18T07:54:16;102757.00;;;0.34;56.10
73918;BME280;63639;52.280;5.162;2022-12-18T07:56:43;102758.79;;;0.36;56.59
73918;BME280;63639;52.280;5.162;2022-12-18T07:59:10;102758.80;;;0.21;56.91
73918;BME280;63639;52.280;5.162;2022-12-18T08:01:37;102754.62;;;0.16;57.14
73918;BME280;63639;52.280;5.162;2022-12-18T08:04:04;102749.97;;;0.21;57.03
73918;BME280;63639;52.280;5.162;2022-12-18T08:06:31;102753.89;;;0.07;57.39
73918;BME280;63639;52.280;5.162;2022-12-18T08:08:58;102754.33;;;0.13;57.32
73918;BME280;63639;52.280;5.162;2022-12-18T08:11:27;102754.42;;;-0.00;57.76
73918;BME280;63639;52.280;5.162;2022-12-18T08:13:54;102756.53;;;-0.08;58.01
73918;BME280;63639;52.280;5.162;2022-12-18T08:16:22;102758.39;;;-0.05;58.46
73918;BME280;63639;52.280;5.162;2022-12-18T08:18:51;102766.98;;;-0.03;58.66
73918;BME280;63639;52.280;5.162;2022-12-18T08:21:20;102775.44;;;0.10;57.71
73918;BME280;63639;52.280;5.162;2022-12-18T08:23:48;102779.98;;;0.27;57.54
73918;BME280;63639;52.280;5.162;2022-12-18T08:26:15;102783.14;;;0.24;57.62
73918;BME280;63639;52.280;5.162;2022-12-18T08:28:42;102785.26;;;0.30;57.70
73918;BME280;63639;52.280;5.162;2022-12-18T08:31:10;102786.40;;;0.26;58.00
73918;BME280;63639;52.280;5.162;2022-12-18T08:33:38;102785.01;;;0.18;58.03
73918;BME280;63639;52.280;5.162;2022-12-18T08:36:06;102780.58;;;0.18;57.54
73918;BME280;63639;52.280;5.162;2022-12-18T08:38:33;102784.61;;;0.20;57.91
73918;BME280;63639;52.280;5.162;2022-12-18T08:41:01;102780.27;;;0.30;57.68
73918;BME280;63639;52.280;5.162;2022-12-18T08:43:29;102776.20;;;0.45;57.26
73918;BME280;63639;52.280;5.162;2022-12-18T08:45:56;102771.12;;;0.24;57.75
73918;BME280;63639;52.280;5.162;2022-12-18T08:48:23;102770.35;;;0.24;57.99
73918;BME280;63639;52.280;5.162;2022-12-18T08:50:54;102776.58;;;0.29;58.18
73918;BME280;63639;52.280;5.162;2022-12-18T08:53:25;102777.24;;;0.33;57.82
73918;BME280;63639;52.280;5.162;2022-12-18T08:55:52;102783.10;;;0.37;57.93
73918;BME280;63639;52.280;5.162;2022-12-18T08:58:20;102779.87;;;0.28;58.57
73918;BME280;63639;52.280;5.162;2022-12-18T09:00:47;102782.83;;;0.41;58.40
73918;BME280;63639;52.280;5.162;2022-12-18T09:03:15;102775.18;;;0.49;58.18
73918;BME280;63639;52.280;5.162;2022-12-18T09:05:42;102759.78;;;0.59;57.87
73918;BME280;63639;52.280;5.162;2022-12-18T09:08:09;102751.89;;;0.57;57.70
73918;BME280;63639;52.280;5.162;2022-12-18T09:10:41;102750.76;;;0.50;57.89
73918;BME280;63639;52.280;5.162;2022-12-18T09:13:10;102751.17;;;0.57;57.86
73918;BME280;63639;52.280;5.162;2022-12-18T09:15:41;102761.38;;;0.66;57.82
73918;BME280;63639;52.280;5.162;2022-12-18T09:18:07;102770.39;;;0.58;57.88
73918;BME280;63639;52.280;5.162;2022-12-18T09:20:34;102763.53;;;0.57;58.04
73918;BME280;63639;52.280;5.162;2022-12-18T09:23:01;102759.68;;;0.54;57.99
73918;BME280;63639;52.280;5.162;2022-12-18T09:25:29;102760.49;;;0.61;57.96
73918;BME280;63639;52.280;5.162;2022-12-18T09:27:56;102759.17;;;0.77;58.42
73918;BME280;63639;52.280;5.162;2022-12-18T09:30:22;102751.17;;;0.76;57.44
73918;BME280;63639;52.280;5.162;2022-12-18T09:32:49;102749.37;;;0.87;57.25
73918;BME280;63639;52.280;5.162;2022-12-18T09:35:15;102738.89;;;0.91;57.61
73918;BME280;63639;52.280;5.162;2022-12-18T09:37:42;102737.11;;;0.80;57.75
73918;BME280;63639;52.280;5.162;2022-12-18T09:40:13;102744.93;;;0.81;58.07
73918;BME280;63639;52.280;5.162;2022-12-18T09:42:40;102741.38;;;0.87;57.75
73918;BME280;63639;52.280;5.162;2022-12-18T09:45:13;102728.35;;;0.97;57.97
73918;BME280;63639;52.280;5.162;2022-12-18T09:47:43;102735.94;;;0.97;57.45
73918;BME280;63639;52.280;5.162;2022-12-18T09:50:22;102727.28;;;0.99;57.84
73918;BME280;63639;52.280;5.162;2022-12-18T09:52:54;102722.66;;;1.07;57.83
73918;BME280;63639;52.280;5.162;2022-12-18T09:55:28;102725.60;;;1.19;57.73
73918;BME280;63639;52.280;5.162;2022-12-18T09:58:01;102726.22;;;1.28;57.52
73918;BME280;63639;52.280;5.162;2022-12-18T10:00:29;102718.72;;;1.40;57.74
73918;BME280;63639;52.280;5.162;2022-12-18T10:02:59;102715.27;;;1.50;57.28
73918;BME280;63639;52.280;5.162;2022-12-18T10:05:33;102710.20;;;1.47;57.06
73918;BME280;63639;52.280;5.162;2022-12-18T10:08:07;102713.14;;;1.49;57.13
73918;BME280;63639;52.280;5.162;2022-12-18T10:10:39;102712.67;;;1.65;57.33
73918;BME280;63639;52.280;5.162;2022-12-18T10:13:15;102716.04;;;1.69;57.25
73918;BME280;63639;52.280;5.162;2022-12-18T10:15:54;102719.65;;;1.70;56.86
73918;BME280;63639;52.280;5.162;2022-12-18T10:18:35;102727.83;;;1.82;56.69
73918;BME280;63639;52.280;5.162;2022-12-18T10:21:10;102727.32;;;1.84;56.30
73918;BME280;63639;52.280;5.162;2022-12-18T10:23:47;102713.82;;;1.82;55.80
73918;BME280;63639;52.280;5.162;2022-12-18T10:26:17;102707.48;;;1.88;56.09
73918;BME280;63639;52.280;5.162;2022-12-18T10:28:45;102703.26;;;2.04;56.62
73918;BME280;63639;52.280;5.162;2022-12-18T10:31:15;102700.59;;;2.04;56.33
73918;BME280;63639;52.280;5.162;2022-12-18T10:33:43;102700.95;;;1.96;56.55
73918;BME280;63639;52.280;5.162;2022-12-18T10:36:10;102706.95;;;2.03;56.39
73918;BME280;63639;52.280;5.162;2022-12-18T10:38:37;102706.29;;;2.23;56.50
73918;BME280;63639;52.280;5.162;2022-12-18T10:41:06;102687.98;;;2.30;56.01
73918;BME280;63639;52.280;5.162;2022-12-18T10:43:34;102690.02;;;2.41;55.62
73918;BME280;63639;52.280;5.162;2022-12-18T10:46:11;102690.72;;;2.42;55.58
73918;BME280;63639;52.280;5.162;2022-12-18T10:48:48;102690.53;;;2.48;55.74
73918;BME280;63639;52.280;5.162;2022-12-18T10:51:21;102683.81;;;2.53;55.91
73918;BME280;63639;52.280;5.162;2022-12-18T10:53:53;102681.03;;;2.60;55.68
73918;BME280;63639;52.280;5.162;2022-12-18T10:56:21;102681.18;;;2.51;55.41
73918;BME280;63639;52.280;5.162;2022-12-18T10:58:56;102672.36;;;2.60;55.32
73918;BME280;63639;52.280;5.162;2022-12-18T11:01:23;102657.63;;;2.59;55.81
73918;BME280;63639;52.280;5.162;2022-12-18T11:03:59;102649.39;;;2.55;55.70
73918;BME280;63639;52.280;5.162;2022-12-18T11:06:28;102645.85;;;2.59;55.85
73918;BME280;63639;52.280;5.162;2022-12-18T11:09:00;102645.70;;;2.58;55.89
73918;BME280;63639;52.280;5.162;2022-12-18T11:11:28;102655.07;;;2.60;55.50
73918;BME280;63639;52.280;5.162;2022-12-18T11:14:01;102650.98;;;2.69;55.76
73918;BME280;63639;52.280;5.162;2022-12-18T11:16:29;102641.38;;;2.74;55.45
73918;BME280;63639;52.280;5.162;2022-12-18T11:19:14;102636.23;;;2.81;55.19
73918;BME280;63639;52.280;5.162;2022-12-18T11:21:45;102628.97;;;2.86;55.03
73918;BME280;63639;52.280;5.162;2022-12-18T11:24:20;102626.79;;;2.85;55.01
73918;BME280;63639;52.280;5.162;2022-12-18T11:26:49;102629.17;;;3.00;55.09
73918;BME280;63639;52.280;5.162;2022-12-18T11:29:18;102633.26;;;3.01;54.45
73918;BME280;63639;52.280;5.162;2022-12-18T11:31:45;102634.22;;;3.17;54.63
73918;BME280;63639;52.280;5.162;2022-12-18T11:34:15;102629.16;;;3.25;54.26
73918;BME280;63639;52.280;5.162;2022-12-18T11:36:47;102627.09;;;3.26;53.80
73918;BME280;63639;52.280;5.162;2022-12-18T11:39:18;102629.08;;;3.25;54.53
73918;BME280;63639;52.280;5.162;2022-12-18T11:41:50;102629.13;;;3.13;54.45
73918;BME280;63639;52.280;5.162;2022-12-18T11:44:22;102632.81;;;3.03;54.76
73918;BME280;63639;52.280;5.162;2022-12-18T11:46:56;102625.99;;;3.03;54.80
73918;BME280;63639;52.280;5.162;2022-12-18T11:49:29;102622.55;;;3.19;54.90
73918;BME280;63639;52.280;5.162;2022-12-18T11:52:04;102608.45;;;3.06;54.66
73918;BME280;63639;52.280;5.162;2022-12-18T11:54:35;102604.92;;;3.12;54.58
73918;BME280;63639;52.280;5.162;2022-12-18T11:57:08;102598.16;;;3.07;54.84
73918;BME280;63639;52.280;5.162;2022-12-18T11:59:45;102589.03;;;3.14;54.56
73918;BME280;63639;52.280;5.162;2022-12-18T12:02:39;102578.88;;;3.34;54.67
73918;BME280;63639;52.280;5.162;2022-12-18T12:05:19;102569.04;;;3.17;54.30
73918;BME280;63639;52.280;5.162;2022-12-18T12:07:54;102561.69;;;3.24;54.60
73918;BME280;63639;52.280;5.162;2022-12-18T12:10:34;102561.81;;;3.11;54.69
73918;BME280;63639;52.280;5.162;2022-12-18T12:13:15;102555.64;;;3.16;54.61
73918;BME280;63639;52.280;5.162;2022-12-18T12:15:54;102556.82;;;3.28;54.60
73918;BME280;63639;52.280;5.162;2022-12-18T12:18:36;102553.63;;;3.35;54.25
73918;BME280;63639;52.280;5.162;2022-12-18T12:21:10;102549.29;;;3.30;53.92
73918;BME280;63639;52.280;5.162;2022-12-18T12:23:47;102544.81;;;3.37;53.71
73918;BME280;63639;52.280;5.162;2022-12-18T12:26:24;102545.23;;;3.48;53.99
73918;BME280;63639;52.280;5.162;2022-12-18T12:29:01;102544.19;;;3.51;53.54
73918;BME280;63639;52.280;5.162;2022-12-18T12:31:44;102541.05;;;3.47;53.90
73918;BME280;63639;52.280;5.162;2022-12-18T12:34:19;102531.28;;;3.38;54.04
73918;BME280;63639;52.280;5.162;2022-12-18T12:36:57;102532.72;;;3.30;54.08
73918;BME280;63639;52.280;5.162;2022-12-18T12:39:31;102525.46;;;3.23;54.35
73918;BME280;63639;52.280;5.162;2022-12-18T12:41:59;102518.41;;;3.19;54.47
73918;BME280;63639;52.280;5.162;2022-12-18T12:44:30;102511.80;;;3.34;54.58
73918;BME280;63639;52.280;5.162;2022-12-18T12:47:04;102519.39;;;3.38;53.96
73918;BME280;63639;52.280;5.162;2022-12-18T12:49:33;102509.02;;;3.37;54.28
73918;BME280;63639;52.280;5.162;2022-12-18T12:52:06;102509.98;;;3.38;54.19
73918;BME280;63639;52.280;5.162;2022-12-18T12:54:34;102508.97;;;3.39;54.18
73918;BME280;63639;52.280;5.162;2022-12-18T12:57:07;102505.47;;;3.48;53.97
73918;BME280;63639;52.280;5.162;2022-12-18T12:59:47;102506.26;;;3.44;53.96
73918;BME280;63639;52.280;5.162;2022-12-18T13:02:21;102502.43;;;3.55;53.84
73918;BME280;63639;52.280;5.162;2022-12-18T13:04:52;102496.30;;;3.52;53.70
73918;BME280;63639;52.280;5.162;2022-12-18T13:07:26;102495.39;;;3.61;53.93
73918;BME280;63639;52.280;5.162;2022-12-18T13:10:19;102495.52;;;3.73;53.41
73918;BME280;63639;52.280;5.162;2022-12-18T13:12:54;102499.85;;;3.68;53.44
73918;BME280;63639;52.280;5.162;2022-12-18T13:15:23;102501.67;;;3.56;53.08